sensor_id;sensor_type;location;lat;lon;timestamp;temperature;humidity
19567;DHT22;9930;49.240;8.548;2023-04-12T00:01:09;13.80;57.30
19567;DHT22;9930;49.240;8.548;2023-04-12T00:03:36;13.80;57.40
19567;DHT22;9930;49.240;8.548;2023-04-12T00:06:04;13.80;57.60
19567;DHT22;9930;49.240;8.548;2023-04-12T00:08:32;13.80;57.70
19567;DHT22;9930;49.240;8.548;2023-04-12T00:11:02;13.80;57.80
19567;DHT22;9930;49.240;8.548;2023-04-12T00:13:28;13.80;57.90
19567;DHT22;9930;49.240;8.548;2023-04-12T00:15:55;13.80;57.90
19567;DHT22;9930;49.240;8.548;2023-04-12T00:18:22;13.80;57.90
19567;DHT22;9930;49.240;8.548;2023-04-12T00:20:50;13.80;58.00
19567;DHT22;9930;49.240;8.548;2023-04-12T00:23:19;13.70;58.00
19567;DHT22;9930;49.240;8.548;2023-04-12T00:25:48;13.80;58.10
19567;DHT22;9930;49.240;8.548;2023-04-12T00:28:15;13.70;58.20
19567;DHT22;9930;49.240;8.548;2023-04-12T00:30:48;13.70;58.30
19567;DHT22;9930;49.240;8.548;2023-04-12T00:33:15;13.70;58.40
19567;DHT22;9930;49.240;8.548;2023-04-12T00:35:42;13.70;58.30
19567;DHT22;9930;49.240;8.548;2023-04-12T00:38:08;13.70;58.50
19567;DHT22;9930;49.240;8.548;2023-04-12T00:40:46;13.70;58.70
19567;DHT22;9930;49.240;8.548;2023-04-12T00:43:12;13.60;58.80
19567;DHT22;9930;49.240;8.548;2023-04-12T00:45:45;13.60;58.90
19567;DHT22;9930;49.240;8.548;2023-04-12T00:48:12;13.60;58.90
19567;DHT22;9930;49.240;8.548;2023-04-12T00:50:42;13.60;59.00
19567;DHT22;9930;49.240;8.548;2023-04-12T00:53:13;13.60;59.30
19567;DHT22;9930;49.240;8.548;2023-04-12T00:55:49;13.50;59.60
19567;DHT22;9930;49.240;8.548;2023-04-12T00:58:18;13.50;59.90
19567;DHT22;9930;49.240;8.548;2023-04-12T01:00:47;13.50;59.70
19567;DHT22;9930;49.240;8.548;2023-04-12T01:03:18;13.50;59.90
19567;DHT22;9930;49.240;8.548;2023-04-12T01:15:03;13.30;60.40
19567;DHT22;9930;49.240;8.548;2023-04-12T01:17:42;13.30;61.80
19567;DHT22;9930;49.240;8.548;2023-04-12T01:20:17;13.30;61.50
19567;DHT22;9930;49.240;8.548;2023-04-12T01:25:34;13.30;62.30
19567;DHT22;9930;49.240;8.548;2023-04-12T01:28:08;13.30;62.20
19567;DHT22;9930;49.240;8.548;2023-04-12T01:30:37;13.20;62.30
19567;DHT22;9930;49.240;8.548;2023-04-12T01:33:05;13.20;62.50
19567;DHT22;9930;49.240;8.548;2023-04-12T01:35:43;13.20;62.80
19567;DHT22;9930;49.240;8.548;2023-04-12T01:38:09;13.20;63.20
19567;DHT22;9930;49.240;8.548;2023-04-12T01:40:35;13.20;63.10
19567;DHT22;9930;49.240;8.548;2023-04-12T01:43:08;13.20;63.20
19567;DHT22;9930;49.240;8.548;2023-04-12T01:45:38;13.10;63.50
19567;DHT22;9930;49.240;8.548;2023-04-12T01:48:09;13.10;63.40
19567;DHT22;9930;49.240;8.548;2023-04-12T01:56:23;13.10;63.80
19567;DHT22;9930;49.240;8.548;2023-04-12T01:58:55;13.10;64.00
19567;DHT22;9930;49.240;8.548;2023-04-12T02:01:25;13.10;64.30
19567;DHT22;9930;49.240;8.548;2023-04-12T02:03:54;13.10;64.50
19567;DHT22;9930;49.240;8.548;2023-04-12T02:06:25;13.10;64.60
19567;DHT22;9930;49.240;8.548;2023-04-12T02:09:00;13.10;64.70
19567;DHT22;9930;49.240;8.548;2023-04-12T02:11:29;13.00;65.00
19567;DHT22;9930;49.240;8.548;2023-04-12T02:13:55;13.00;64.80
19567;DHT22;9930;49.240;8.548;2023-04-12T02:16:23;13.00;65.00
19567;DHT22;9930;49.240;8.548;2023-04-12T02:18:56;13.00;65.10
19567;DHT22;9930;49.240;8.548;2023-04-12T02:21:25;13.00;65.30
19567;DHT22;9930;49.240;8.548;2023-04-12T02:23:56;13.00;65.40
19567;DHT22;9930;49.240;8.548;2023-04-12T02:26:21;13.00;65.60
19567;DHT22;9930;49.240;8.548;2023-04-12T02:28:52;13.00;65.80
19567;DHT22;9930;49.240;8.548;2023-04-12T02:31:22;13.00;66.00
19567;DHT22;9930;49.240;8.548;2023-04-12T02:33:52;13.00;66.00
19567;DHT22;9930;49.240;8.548;2023-04-12T02:36:18;13.00;65.90
19567;DHT22;9930;49.240;8.548;2023-04-12T02:38:51;13.00;65.80
19567;DHT22;9930;49.240;8.548;2023-04-12T02:41:20;13.00;65.80
19567;DHT22;9930;49.240;8.548;2023-04-12T02:43:49;12.90;66.00
19567;DHT22;9930;49.240;8.548;2023-04-12T02:46:21;12.90;66.10
19567;DHT22;9930;49.240;8.548;2023-04-12T02:48:49;12.90;66.30
19567;DHT22;9930;49.240;8.548;2023-04-12T02:51:17;12.90;66.00
19567;DHT22;9930;49.240;8.548;2023-04-12T02:53:44;12.80;66.30
19567;DHT22;9930;49.240;8.548;2023-04-12T02:56:13;12.90;66.30
19567;DHT22;9930;49.240;8.548;2023-04-12T02:58:38;12.90;66.60
19567;DHT22;9930;49.240;8.548;2023-04-12T03:01:04;12.90;66.70
19567;DHT22;9930;49.240;8.548;2023-04-12T03:03:32;12.80;66.70
19567;DHT22;9930;49.240;8.548;2023-04-12T03:06:00;12.80;66.80
19567;DHT22;9930;49.240;8.548;2023-04-12T03:08:28;12.80;67.00
19567;DHT22;9930;49.240;8.548;2023-04-12T03:10:56;12.80;67.00
19567;DHT22;9930;49.240;8.548;2023-04-12T03:13:22;12.80;67.00
19567;DHT22;9930;49.240;8.548;2023-04-12T03:15:48;12.80;67.00
19567;DHT22;9930;49.240;8.548;2023-04-12T03:18:14;12.80;67.20
19567;DHT22;9930;49.240;8.548;2023-04-12T03:20:45;12.80;67.30
19567;DHT22;9930;49.240;8.548;2023-04-12T03:23:11;12.70;67.20
19567;DHT22;9930;49.240;8.548;2023-04-12T03:25:37;12.70;67.10
19567;DHT22;9930;49.240;8.548;2023-04-12T03:28:03;12.70;67.20
19567;DHT22;9930;49.240;8.548;2023-04-12T03:30:31;12.70;67.50
19567;DHT22;9930;49.240;8.548;2023-04-12T03:32:59;12.70;67.20
19567;DHT22;9930;49.240;8.548;2023-04-12T03:35:28;12.70;67.60
19567;DHT22;9930;49.240;8.548;2023-04-12T03:37:53;12.70;67.70
19567;DHT22;9930;49.240;8.548;2023-04-12T03:40:19;12.70;67.80
19567;DHT22;9930;49.240;8.548;2023-04-12T03:42:47;12.70;67.90
19567;DHT22;9930;49.240;8.548;2023-04-12T03:45:16;12.70;68.00
19567;DHT22;9930;49.240;8.548;2023-04-12T03:47:42;12.60;68.00
19567;DHT22;9930;49.240;8.548;2023-04-12T03:50:08;12.60;68.00
19567;DHT22;9930;49.240;8.548;2023-04-12T03:52:34;12.60;68.00
19567;DHT22;9930;49.240;8.548;2023-04-12T03:55:02;12.60;68.50
19567;DHT22;9930;49.240;8.548;2023-04-12T03:57:33;12.60;68.30
19567;DHT22;9930;49.240;8.548;2023-04-12T03:59:59;12.60;68.30
19567;DHT22;9930;49.240;8.548;2023-04-12T04:02:27;12.60;67.90
19567;DHT22;9930;49.240;8.548;2023-04-12T04:04:53;12.60;68.30
19567;DHT22;9930;49.240;8.548;2023-04-12T04:07:21;12.60;68.30
19567;DHT22;9930;49.240;8.548;2023-04-12T04:09:47;12.60;68.50
19567;DHT22;9930;49.240;8.548;2023-04-12T04:12:20;12.50;68.40
19567;DHT22;9930;49.240;8.548;2023-04-12T04:14:57;12.60;68.80
19567;DHT22;9930;49.240;8.548;2023-04-12T04:17:26;12.50;68.90
19567;DHT22;9930;49.240;8.548;2023-04-12T04:19:51;12.50;68.60
19567;DHT22;9930;49.240;8.548;2023-04-12T04:22:17;12.50;68.50
19567;DHT22;9930;49.240;8.548;2023-04-12T04:24:47;12.50;68.60
19567;DHT22;9930;49.240;8.548;2023-04-12T04:27:16;12.50;68.50
19567;DHT22;9930;49.240;8.548;2023-04-12T04:29:44;12.50;68.90
19567;DHT22;9930;49.240;8.548;2023-04-12T04:32:13;12.40;68.90
19567;DHT22;9930;49.240;8.548;2023-04-12T04:34:42;12.40;68.70
19567;DHT22;9930;49.240;8.548;2023-04-12T04:37:10;12.40;69.00
19567;DHT22;9930;49.240;8.548;2023-04-12T04:39:38;12.40;69.00
19567;DHT22;9930;49.240;8.548;2023-04-12T04:42:04;12.40;69.10
19567;DHT22;9930;49.240;8.548;2023-04-12T04:44:32;12.40;69.40
19567;DHT22;9930;49.240;8.548;2023-04-12T04:47:02;12.40;69.30
19567;DHT22;9930;49.240;8.548;2023-04-12T04:49:29;12.40;69.40
19567;DHT22;9930;49.240;8.548;2023-04-12T04:51:55;12.40;69.30
19567;DHT22;9930;49.240;8.548;2023-04-12T04:54:21;12.40;69.30
19567;DHT22;9930;49.240;8.548;2023-04-12T04:56:48;12.40;69.60
19567;DHT22;9930;49.240;8.548;2023-04-12T04:59:18;12.40;69.60
19567;DHT22;9930;49.240;8.548;2023-04-12T05:01:51;12.40;69.80
19567;DHT22;9930;49.240;8.548;2023-04-12T05:04:19;12.40;69.90
19567;DHT22;9930;49.240;8.548;2023-04-12T05:06:47;12.40;69.80
19567;DHT22;9930;49.240;8.548;2023-04-12T05:09:13;12.40;70.00
19567;DHT22;9930;49.240;8.548;2023-04-12T05:11:39;12.40;69.90
19567;DHT22;9930;49.240;8.548;2023-04-12T05:14:04;12.40;69.80
19567;DHT22;9930;49.240;8.548;2023-04-12T05:16:30;12.40;70.00
19567;DHT22;9930;49.240;8.548;2023-04-12T05:18:58;12.40;70.20
19567;DHT22;9930;49.240;8.548;2023-04-12T05:21:25;12.40;70.10
19567;DHT22;9930;49.240;8.548;2023-04-12T05:23:53;12.40;71.00
19567;DHT22;9930;49.240;8.548;2023-04-12T05:26:21;12.40;70.20
19567;DHT22;9930;49.240;8.548;2023-04-12T05:28:48;12.40;70.30
19567;DHT22;9930;49.240;8.548;2023-04-12T05:31:22;12.50;70.60
19567;DHT22;9930;49.240;8.548;2023-04-12T05:33:49;12.40;70.50
19567;DHT22;9930;49.240;8.548;2023-04-12T05:36:16;12.40;70.60
19567;DHT22;9930;49.240;8.548;2023-04-12T05:38:42;12.40;70.60
19567;DHT22;9930;49.240;8.548;2023-04-12T05:41:08;12.40;70.60
19567;DHT22;9930;49.240;8.548;2023-04-12T05:43:34;12.40;70.60
19567;DHT22;9930;49.240;8.548;2023-04-12T05:46:05;12.40;70.90
19567;DHT22;9930;49.240;8.548;2023-04-12T05:48:34;12.40;70.60
19567;DHT22;9930;49.240;8.548;2023-04-12T05:51:01;12.40;70.70
19567;DHT22;9930;49.240;8.548;2023-04-12T05:53:32;12.40;70.90
19567;DHT22;9930;49.240;8.548;2023-04-12T05:55:58;12.50;70.70
19567;DHT22;9930;49.240;8.548;2023-04-12T05:58:23;12.50;71.00
19567;DHT22;9930;49.240;8.548;2023-04-12T06:00:51;12.50;71.10
19567;DHT22;9930;49.240;8.548;2023-04-12T06:03:22;12.50;71.20
19567;DHT22;9930;49.240;8.548;2023-04-12T06:05:48;12.50;71.20
19567;DHT22;9930;49.240;8.548;2023-04-12T06:08:17;12.50;71.40
19567;DHT22;9930;49.240;8.548;2023-04-12T06:10:44;12.50;71.10
19567;DHT22;9930;49.240;8.548;2023-04-12T06:13:12;12.50;71.40
19567;DHT22;9930;49.240;8.548;2023-04-12T06:15:39;12.50;71.30
19567;DHT22;9930;49.240;8.548;2023-04-12T06:18:08;12.50;71.40
19567;DHT22;9930;49.240;8.548;2023-04-12T06:20:38;12.50;71.50
19567;DHT22;9930;49.240;8.548;2023-04-12T06:23:07;12.50;71.40
19567;DHT22;9930;49.240;8.548;2023-04-12T06:25:35;12.60;71.50
19567;DHT22;9930;49.240;8.548;2023-04-12T06:28:04;12.60;71.70
19567;DHT22;9930;49.240;8.548;2023-04-12T06:30:32;12.60;71.70
19567;DHT22;9930;49.240;8.548;2023-04-12T06:32:57;12.60;71.70
19567;DHT22;9930;49.240;8.548;2023-04-12T06:35:25;12.60;71.60
19567;DHT22;9930;49.240;8.548;2023-04-12T06:37:51;12.60;71.60
19567;DHT22;9930;49.240;8.548;2023-04-12T06:40:20;12.60;71.60
19567;DHT22;9930;49.240;8.548;2023-04-12T06:42:47;12.70;71.80
19567;DHT22;9930;49.240;8.548;2023-04-12T06:45:19;12.70;72.10
19567;DHT22;9930;49.240;8.548;2023-04-12T06:47:47;12.70;72.20
19567;DHT22;9930;49.240;8.548;2023-04-12T06:50:13;12.80;72.80
19567;DHT22;9930;49.240;8.548;2023-04-12T06:52:38;12.70;72.20
19567;DHT22;9930;49.240;8.548;2023-04-12T06:55:05;12.80;72.10
19567;DHT22;9930;49.240;8.548;2023-04-12T06:57:31;12.80;71.80
19567;DHT22;9930;49.240;8.548;2023-04-12T06:59:57;12.80;71.90
19567;DHT22;9930;49.240;8.548;2023-04-12T07:02:26;12.80;72.00
19567;DHT22;9930;49.240;8.548;2023-04-12T07:04:54;12.80;72.30
19567;DHT22;9930;49.240;8.548;2023-04-12T07:07:20;12.90;72.40
19567;DHT22;9930;49.240;8.548;2023-04-12T07:09:48;12.90;72.50
19567;DHT22;9930;49.240;8.548;2023-04-12T07:12:20;12.90;72.70
19567;DHT22;9930;49.240;8.548;2023-04-12T07:14:51;12.90;72.70
19567;DHT22;9930;49.240;8.548;2023-04-12T07:17:19;12.90;73.00
19567;DHT22;9930;49.240;8.548;2023-04-12T07:19:53;13.00;72.80
19567;DHT22;9930;49.240;8.548;2023-04-12T07:22:26;13.00;72.90
19567;DHT22;9930;49.240;8.548;2023-04-12T07:24:51;13.00;72.90
19567;DHT22;9930;49.240;8.548;2023-04-12T07:27:18;13.10;73.00
19567;DHT22;9930;49.240;8.548;2023-04-12T07:29:50;13.10;73.10
19567;DHT22;9930;49.240;8.548;2023-04-12T07:32:17;13.10;73.40
19567;DHT22;9930;49.240;8.548;2023-04-12T07:34:45;13.10;72.90
19567;DHT22;9930;49.240;8.548;2023-04-12T07:37:11;13.20;73.00
19567;DHT22;9930;49.240;8.548;2023-04-12T07:39:37;13.20;73.10
19567;DHT22;9930;49.240;8.548;2023-04-12T07:42:05;13.20;73.20
19567;DHT22;9930;49.240;8.548;2023-04-12T07:44:31;13.30;72.90
19567;DHT22;9930;49.240;8.548;2023-04-12T07:46:58;13.30;72.90
19567;DHT22;9930;49.240;8.548;2023-04-12T07:49:26;13.30;73.10
19567;DHT22;9930;49.240;8.548;2023-04-12T07:51:52;13.30;73.20
19567;DHT22;9930;49.240;8.548;2023-04-12T07:54:17;13.40;73.40
19567;DHT22;9930;49.240;8.548;2023-04-12T07:57:02;13.40;73.50
19567;DHT22;9930;49.240;8.548;2023-04-12T07:59:29;13.40;73.70
19567;DHT22;9930;49.240;8.548;2023-04-12T08:01:58;13.40;73.50
19567;DHT22;9930;49.240;8.548;2023-04-12T08:04:27;13.50;73.50
19567;DHT22;9930;49.240;8.548;2023-04-12T08:06:53;13.50;73.60
19567;DHT22;9930;49.240;8.548;2023-04-12T08:09:23;13.50;73.80
19567;DHT22;9930;49.240;8.548;2023-04-12T08:11:51;13.60;73.80
19567;DHT22;9930;49.240;8.548;2023-04-12T08:14:17;13.60;73.80
19567;DHT22;9930;49.240;8.548;2023-04-12T08:16:44;13.70;73.70
19567;DHT22;9930;49.240;8.548;2023-04-12T08:19:10;13.70;73.70
19567;DHT22;9930;49.240;8.548;2023-04-12T08:21:38;13.80;73.80
19567;DHT22;9930;49.240;8.548;2023-04-12T08:24:05;13.80;73.90
19567;DHT22;9930;49.240;8.548;2023-04-12T08:26:31;13.80;74.10
19567;DHT22;9930;49.240;8.548;2023-04-12T08:28:59;13.90;74.30
19567;DHT22;9930;49.240;8.548;2023-04-12T08:31:27;13.90;74.60
19567;DHT22;9930;49.240;8.548;2023-04-12T08:33:58;14.00;74.80
19567;DHT22;9930;49.240;8.548;2023-04-12T08:36:24;14.10;74.90
19567;DHT22;9930;49.240;8.548;2023-04-12T08:38:51;14.20;75.00
19567;DHT22;9930;49.240;8.548;2023-04-12T08:41:22;14.30;75.10
19567;DHT22;9930;49.240;8.548;2023-04-12T08:43:53;14.40;75.30
19567;DHT22;9930;49.240;8.548;2023-04-12T08:46:27;14.50;75.10
19567;DHT22;9930;49.240;8.548;2023-04-12T08:48:57;14.60;74.90
19567;DHT22;9930;49.240;8.548;2023-04-12T08:51:23;14.60;74.80
19567;DHT22;9930;49.240;8.548;2023-04-12T08:53:52;14.70;74.50
19567;DHT22;9930;49.240;8.548;2023-04-12T08:56:19;14.80;74.20
19567;DHT22;9930;49.240;8.548;2023-04-12T08:58:47;14.80;74.10
19567;DHT22;9930;49.240;8.548;2023-04-12T09:01:15;14.80;74.00
19567;DHT22;9930;49.240;8.548;2023-04-12T09:03:47;14.80;74.30
19567;DHT22;9930;49.240;8.548;2023-04-12T09:06:13;14.80;74.40
19567;DHT22;9930;49.240;8.548;2023-04-12T09:08:54;14.90;74.60
19567;DHT22;9930;49.240;8.548;2023-04-12T09:11:26;14.90;74.90
19567;DHT22;9930;49.240;8.548;2023-04-12T09:13:53;14.90;74.50
19567;DHT22;9930;49.240;8.548;2023-04-12T09:16:36;15.00;74.70
19567;DHT22;9930;49.240;8.548;2023-04-12T09:19:08;15.00;75.10
19567;DHT22;9930;49.240;8.548;2023-04-12T09:21:34;15.10;75.00
19567;DHT22;9930;49.240;8.548;2023-04-12T09:24:09;15.10;75.30
19567;DHT22;9930;49.240;8.548;2023-04-12T09:26:36;15.20;75.20
19567;DHT22;9930;49.240;8.548;2023-04-12T09:29:08;15.20;74.80
19567;DHT22;9930;49.240;8.548;2023-04-12T09:32:03;15.30;74.70
19567;DHT22;9930;49.240;8.548;2023-04-12T09:34:33;15.30;75.10
19567;DHT22;9930;49.240;8.548;2023-04-12T09:37:14;15.30;74.80
19567;DHT22;9930;49.240;8.548;2023-04-12T09:39:41;15.30;76.20
19567;DHT22;9930;49.240;8.548;2023-04-12T09:42:13;15.40;75.30
19567;DHT22;9930;49.240;8.548;2023-04-12T09:44:39;15.50;75.60
19567;DHT22;9930;49.240;8.548;2023-04-12T09:47:05;15.60;75.30
19567;DHT22;9930;49.240;8.548;2023-04-12T09:49:39;15.70;75.10
19567;DHT22;9930;49.240;8.548;2023-04-12T09:52:10;15.70;75.30
19567;DHT22;9930;49.240;8.548;2023-04-12T09:54:43;15.70;74.90
19567;DHT22;9930;49.240;8.548;2023-04-12T09:57:11;15.80;74.80
19567;DHT22;9930;49.240;8.548;2023-04-12T09:59:40;15.80;74.70
19567;DHT22;9930;49.240;8.548;2023-04-12T10:02:18;15.80;74.70
19567;DHT22;9930;49.240;8.548;2023-04-12T10:04:49;15.80;75.20
19567;DHT22;9930;49.240;8.548;2023-04-12T10:07:15;15.80;74.90
19567;DHT22;9930;49.240;8.548;2023-04-12T10:09:43;15.80;74.80
19567;DHT22;9930;49.240;8.548;2023-04-12T10:12:09;15.90;74.80
19567;DHT22;9930;49.240;8.548;2023-04-12T10:14:36;15.90;74.80
19567;DHT22;9930;49.240;8.548;2023-04-12T10:17:03;15.90;74.60
19567;DHT22;9930;49.240;8.548;2023-04-12T10:19:33;15.90;74.50
19567;DHT22;9930;49.240;8.548;2023-04-12T10:22:06;16.00;74.30
19567;DHT22;9930;49.240;8.548;2023-04-12T10:24:34;15.90;74.10
19567;DHT22;9930;49.240;8.548;2023-04-12T10:27:03;16.00;74.50
19567;DHT22;9930;49.240;8.548;2023-04-12T10:29:31;16.00;74.60
19567;DHT22;9930;49.240;8.548;2023-04-12T10:32:22;16.00;74.90
19567;DHT22;9930;49.240;8.548;2023-04-12T10:34:54;16.00;75.10
19567;DHT22;9930;49.240;8.548;2023-04-12T10:40:31;16.10;75.60
19567;DHT22;9930;49.240;8.548;2023-04-12T10:43:23;16.20;74.90
19567;DHT22;9930;49.240;8.548;2023-04-12T10:45:53;16.20;75.00
19567;DHT22;9930;49.240;8.548;2023-04-12T10:48:39;16.30;74.90
19567;DHT22;9930;49.240;8.548;2023-04-12T10:51:37;16.30;75.30
19567;DHT22;9930;49.240;8.548;2023-04-12T10:56:43;16.40;74.60
19567;DHT22;9930;49.240;8.548;2023-04-12T10:59:15;16.40;74.40
19567;DHT22;9930;49.240;8.548;2023-04-12T11:02:10;16.50;74.30
19567;DHT22;9930;49.240;8.548;2023-04-12T11:05:08;16.40;74.40
19567;DHT22;9930;49.240;8.548;2023-04-12T11:07:42;16.40;74.70
19567;DHT22;9930;49.240;8.548;2023-04-12T11:10:16;16.60;74.60
19567;DHT22;9930;49.240;8.548;2023-04-12T11:12:49;16.60;74.70
19567;DHT22;9930;49.240;8.548;2023-04-12T11:15:19;16.70;74.80
19567;DHT22;9930;49.240;8.548;2023-04-12T11:17:53;16.80;74.50
19567;DHT22;9930;49.240;8.548;2023-04-12T11:20:20;16.90;74.40
19567;DHT22;9930;49.240;8.548;2023-04-12T11:22:49;17.00;74.00
19567;DHT22;9930;49.240;8.548;2023-04-12T11:25:21;17.00;73.70
19567;DHT22;9930;49.240;8.548;2023-04-12T11:27:50;17.10;73.40
19567;DHT22;9930;49.240;8.548;2023-04-12T11:30:20;17.10;73.20
19567;DHT22;9930;49.240;8.548;2023-04-12T11:32:47;17.10;72.90
19567;DHT22;9930;49.240;8.548;2023-04-12T11:35:16;17.10;72.50
19567;DHT22;9930;49.240;8.548;2023-04-12T11:37:48;17.00;72.40
19567;DHT22;9930;49.240;8.548;2023-04-12T11:40:14;17.00;72.40
19567;DHT22;9930;49.240;8.548;2023-04-12T11:42:40;17.00;72.40
19567;DHT22;9930;49.240;8.548;2023-04-12T11:45:07;17.00;72.20
19567;DHT22;9930;49.240;8.548;2023-04-12T11:47:35;17.00;71.80
19567;DHT22;9930;49.240;8.548;2023-04-12T11:50:09;17.00;71.70
19567;DHT22;9930;49.240;8.548;2023-04-12T11:52:35;16.90;71.70
19567;DHT22;9930;49.240;8.548;2023-04-12T11:55:04;16.90;71.90
19567;DHT22;9930;49.240;8.548;2023-04-12T11:57:35;16.90;72.00
19567;DHT22;9930;49.240;8.548;2023-04-12T12:00:02;16.90;72.00
19567;DHT22;9930;49.240;8.548;2023-04-12T12:02:33;17.00;72.10
19567;DHT22;9930;49.240;8.548;2023-04-12T12:05:02;17.00;72.30
19567;DHT22;9930;49.240;8.548;2023-04-12T12:07:30;17.10;72.50
19567;DHT22;9930;49.240;8.548;2023-04-12T12:09:59;17.10;72.50
19567;DHT22;9930;49.240;8.548;2023-04-12T12:12:26;17.20;72.50
19567;DHT22;9930;49.240;8.548;2023-04-12T12:14:52;17.40;72.60
19567;DHT22;9930;49.240;8.548;2023-04-12T12:17:19;17.50;72.20
19567;DHT22;9930;49.240;8.548;2023-04-12T12:19:49;17.60;72.00
19567;DHT22;9930;49.240;8.548;2023-04-12T12:22:18;17.70;71.40
19567;DHT22;9930;49.240;8.548;2023-04-12T12:24:56;17.70;70.80
19567;DHT22;9930;49.240;8.548;2023-04-12T12:27:35;17.70;70.00
19567;DHT22;9930;49.240;8.548;2023-04-12T12:30:08;17.70;69.90
19567;DHT22;9930;49.240;8.548;2023-04-12T12:32:37;17.70;69.40
19567;DHT22;9930;49.240;8.548;2023-04-12T12:35:11;17.70;69.40
19567;DHT22;9930;49.240;8.548;2023-04-12T12:37:48;17.60;69.00
19567;DHT22;9930;49.240;8.548;2023-04-12T12:40:15;17.50;69.10
19567;DHT22;9930;49.240;8.548;2023-04-12T12:42:53;17.50;69.90
19567;DHT22;9930;49.240;8.548;2023-04-12T12:45:25;17.50;69.10
19567;DHT22;9930;49.240;8.548;2023-04-12T12:48:00;17.40;69.00
19567;DHT22;9930;49.240;8.548;2023-04-12T12:50:28;17.30;68.90
19567;DHT22;9930;49.240;8.548;2023-04-12T12:53:01;17.30;69.20
19567;DHT22;9930;49.240;8.548;2023-04-12T12:55:29;17.20;69.20
19567;DHT22;9930;49.240;8.548;2023-04-12T12:57:56;17.20;69.30
19567;DHT22;9930;49.240;8.548;2023-04-12T13:00:25;17.20;69.40
19567;DHT22;9930;49.240;8.548;2023-04-12T13:02:52;17.20;69.60
19567;DHT22;9930;49.240;8.548;2023-04-12T13:05:22;17.20;69.70
19567;DHT22;9930;49.240;8.548;2023-04-12T13:07:48;17.20;69.70
19567;DHT22;9930;49.240;8.548;2023-04-12T13:10:16;17.30;69.60
19567;DHT22;9930;49.240;8.548;2023-04-12T13:12:50;17.30;69.50
19567;DHT22;9930;49.240;8.548;2023-04-12T13:15:18;17.30;69.50
19567;DHT22;9930;49.240;8.548;2023-04-12T13:17:46;17.30;69.50
19567;DHT22;9930;49.240;8.548;2023-04-12T13:20:13;17.40;69.40
19567;DHT22;9930;49.240;8.548;2023-04-12T13:22:38;17.40;69.40
19567;DHT22;9930;49.240;8.548;2023-04-12T13:25:10;17.40;69.50
19567;DHT22;9930;49.240;8.548;2023-04-12T13:27:36;17.40;69.30
19567;DHT22;9930;49.240;8.548;2023-04-12T13:30:04;17.40;69.20
19567;DHT22;9930;49.240;8.548;2023-04-12T13:32:30;17.40;69.10
19567;DHT22;9930;49.240;8.548;2023-04-12T13:35:00;17.40;69.20
19567;DHT22;9930;49.240;8.548;2023-04-12T13:37:25;17.30;69.40
19567;DHT22;9930;49.240;8.548;2023-04-12T13:39:54;17.30;69.50
19567;DHT22;9930;49.240;8.548;2023-04-12T13:42:21;17.20;69.50
19567;DHT22;9930;49.240;8.548;2023-04-12T13:44:48;17.20;69.80
19567;DHT22;9930;49.240;8.548;2023-04-12T13:47:15;17.20;70.20
19567;DHT22;9930;49.240;8.548;2023-04-12T13:49:43;17.10;70.50
19567;DHT22;9930;49.240;8.548;2023-04-12T13:52:13;17.10;70.90
19567;DHT22;9930;49.240;8.548;2023-04-12T13:54:40;17.10;71.20
19567;DHT22;9930;49.240;8.548;2023-04-12T13:57:09;17.00;71.50
19567;DHT22;9930;49.240;8.548;2023-04-12T13:59:35;17.00;71.70
19567;DHT22;9930;49.240;8.548;2023-04-12T14:02:06;17.00;71.70
19567;DHT22;9930;49.240;8.548;2023-04-12T14:04:34;17.00;71.70
19567;DHT22;9930;49.240;8.548;2023-04-12T14:06:59;17.00;71.80
19567;DHT22;9930;49.240;8.548;2023-04-12T14:09:30;16.90;71.90
19567;DHT22;9930;49.240;8.548;2023-04-12T14:11:59;16.80;71.60
19567;DHT22;9930;49.240;8.548;2023-04-12T14:14:26;16.80;71.80
19567;DHT22;9930;49.240;8.548;2023-04-12T14:16:54;16.70;71.50
19567;DHT22;9930;49.240;8.548;2023-04-12T14:19:23;16.50;71.20
19567;DHT22;9930;49.240;8.548;2023-04-12T14:21:52;16.40;71.30
19567;DHT22;9930;49.240;8.548;2023-04-12T14:24:19;16.30;71.40
19567;DHT22;9930;49.240;8.548;2023-04-12T14:26:50;16.10;71.40
19567;DHT22;9930;49.240;8.548;2023-04-12T14:29:16;16.00;71.60
19567;DHT22;9930;49.240;8.548;2023-04-12T14:31:43;15.90;71.70
19567;DHT22;9930;49.240;8.548;2023-04-12T14:34:08;15.80;72.00
19567;DHT22;9930;49.240;8.548;2023-04-12T14:36:35;15.70;72.10
19567;DHT22;9930;49.240;8.548;2023-04-12T14:39:01;15.60;72.20
19567;DHT22;9930;49.240;8.548;2023-04-12T14:41:29;15.60;72.40
19567;DHT22;9930;49.240;8.548;2023-04-12T14:43:57;15.50;72.50
19567;DHT22;9930;49.240;8.548;2023-04-12T14:46:23;15.40;72.70
19567;DHT22;9930;49.240;8.548;2023-04-12T14:48:51;15.40;73.10
19567;DHT22;9930;49.240;8.548;2023-04-12T14:51:18;15.30;73.30
19567;DHT22;9930;49.240;8.548;2023-04-12T14:53:48;15.30;73.50
19567;DHT22;9930;49.240;8.548;2023-04-12T14:56:25;15.30;74.00
19567;DHT22;9930;49.240;8.548;2023-04-12T14:58:56;15.30;74.10
19567;DHT22;9930;49.240;8.548;2023-04-12T15:01:26;15.30;74.00
19567;DHT22;9930;49.240;8.548;2023-04-12T15:03:54;15.30;74.00
19567;DHT22;9930;49.240;8.548;2023-04-12T15:06:22;15.30;74.00
19567;DHT22;9930;49.240;8.548;2023-04-12T15:08:50;15.30;74.10
19567;DHT22;9930;49.240;8.548;2023-04-12T15:11:19;15.30;74.30
19567;DHT22;9930;49.240;8.548;2023-04-12T15:13:50;15.40;74.40
19567;DHT22;9930;49.240;8.548;2023-04-12T15:16:18;15.40;74.60
19567;DHT22;9930;49.240;8.548;2023-04-12T15:18:44;15.40;74.80
19567;DHT22;9930;49.240;8.548;2023-04-12T15:21:11;15.40;75.00
19567;DHT22;9930;49.240;8.548;2023-04-12T15:23:39;15.50;75.10
19567;DHT22;9930;49.240;8.548;2023-04-12T15:26:06;15.50;75.10
19567;DHT22;9930;49.240;8.548;2023-04-12T15:28:36;15.50;75.00
19567;DHT22;9930;49.240;8.548;2023-04-12T15:31:02;15.50;75.10
19567;DHT22;9930;49.240;8.548;2023-04-12T15:33:31;15.60;75.00
19567;DHT22;9930;49.240;8.548;2023-04-12T15:36:05;15.60;75.10
19567;DHT22;9930;49.240;8.548;2023-04-12T15:38:40;15.60;75.10
19567;DHT22;9930;49.240;8.548;2023-04-12T15:41:09;15.60;75.10
19567;DHT22;9930;49.240;8.548;2023-04-12T15:43:40;15.70;74.90
19567;DHT22;9930;49.240;8.548;2023-04-12T15:46:15;15.70;75.00
19567;DHT22;9930;49.240;8.548;2023-04-12T15:48:43;15.70;74.80
19567;DHT22;9930;49.240;8.548;2023-04-12T15:51:11;15.70;75.00
19567;DHT22;9930;49.240;8.548;2023-04-12T15:53:38;15.80;75.20
19567;DHT22;9930;49.240;8.548;2023-04-12T15:56:10;15.80;75.50
19567;DHT22;9930;49.240;8.548;2023-04-12T15:58:38;15.80;75.40
19567;DHT22;9930;49.240;8.548;2023-04-12T16:01:04;15.90;75.40
19567;DHT22;9930;49.240;8.548;2023-04-12T16:03:33;15.90;75.20
19567;DHT22;9930;49.240;8.548;2023-04-12T16:06:03;15.90;74.80
19567;DHT22;9930;49.240;8.548;2023-04-12T16:08:29;15.90;74.70
19567;DHT22;9930;49.240;8.548;2023-04-12T16:10:55;16.00;75.00
19567;DHT22;9930;49.240;8.548;2023-04-12T16:13:25;16.00;75.10
19567;DHT22;9930;49.240;8.548;2023-04-12T16:15:51;16.00;75.10
19567;DHT22;9930;49.240;8.548;2023-04-12T16:18:22;16.00;75.10
19567;DHT22;9930;49.240;8.548;2023-04-12T16:20:47;16.10;75.00